sensor_id;sensor_type;location;lat;lon;timestamp;temperature;humidity
41547;DHT22;27271;45.412;10.852;2023-05-18T00:02:35;14.90;94.70
41547;DHT22;27271;45.412;10.852;2023-05-18T00:05:57;15.00;1.00
41547;DHT22;27271;45.412;10.852;2023-05-18T00:09:28;15.00;99.90
41547;DHT22;27271;45.412;10.852;2023-05-18T00:12:51;15.00;99.90
41547;DHT22;27271;45.412;10.852;2023-05-18T00:16:13;14.90;1.00
41547;DHT22;27271;45.412;10.852;2023-05-18T00:19:36;14.90;1.00
41547;DHT22;27271;45.412;10.852;2023-05-18T00:22:58;14.70;1.00
41547;DHT22;27271;45.412;10.852;2023-05-18T00:26:21;14.60;48.60
41547;DHT22;27271;45.412;10.852;2023-05-18T00:29:45;14.50;1.00
41547;DHT22;27271;45.412;10.852;2023-05-18T00:33:07;14.40;1.00
41547;DHT22;27271;45.412;10.852;2023-05-18T00:36:30;14.40;1.00
41547;DHT22;27271;45.412;10.852;2023-05-18T00:39:52;14.30;48.60
41547;DHT22;27271;45.412;10.852;2023-05-18T00:43:14;14.20;99.90
41547;DHT22;27271;45.412;10.852;2023-05-18T00:46:37;14.10;99.90
41547;DHT22;27271;45.412;10.852;2023-05-18T00:49:59;14.10;99.90
41547;DHT22;27271;45.412;10.852;2023-05-18T00:53:21;14.00;99.90
41547;DHT22;27271;45.412;10.852;2023-05-18T00:56:43;13.90;99.90
41547;DHT22;27271;45.412;10.852;2023-05-18T01:00:07;13.80;99.90
41547;DHT22;27271;45.412;10.852;2023-05-18T01:03:32;13.80;99.90
41547;DHT22;27271;45.412;10.852;2023-05-18T01:06:55;13.80;55.20
41547;DHT22;27271;45.412;10.852;2023-05-18T01:10:18;13.70;99.90
41547;DHT22;27271;45.412;10.852;2023-05-18T01:21:17;13.50;99.90
41547;DHT22;27271;45.412;10.852;2023-05-18T01:24:47;13.50;99.90
41547;DHT22;27271;45.412;10.852;2023-05-18T01:28:13;13.40;99.90
41547;DHT22;27271;45.412;10.852;2023-05-18T01:31:38;13.40;99.90
41547;DHT22;27271;45.412;10.852;2023-05-18T01:35:00;13.40;99.90
41547;DHT22;27271;45.412;10.852;2023-05-18T01:38:24;13.40;25.30
41547;DHT22;27271;45.412;10.852;2023-05-18T01:41:55;13.50;1.00
41547;DHT22;27271;45.412;10.852;2023-05-18T01:45:21;13.60;1.00
41547;DHT22;27271;45.412;10.852;2023-05-18T01:48:53;13.50;99.90
41547;DHT22;27271;45.412;10.852;2023-05-18T01:52:28;13.60;53.70
41547;DHT22;27271;45.412;10.852;2023-05-18T01:55:54;13.60;1.00
41547;DHT22;27271;45.412;10.852;2023-05-18T01:59:17;13.70;99.90
41547;DHT22;27271;45.412;10.852;2023-05-18T02:02:39;13.80;99.90
41547;DHT22;27271;45.412;10.852;2023-05-18T02:06:02;13.70;99.90
41547;DHT22;27271;45.412;10.852;2023-05-18T02:09:24;13.70;99.90
41547;DHT22;27271;45.412;10.852;2023-05-18T02:12:46;13.60;99.90
41547;DHT22;27271;45.412;10.852;2023-05-18T02:16:13;13.70;99.90
41547;DHT22;27271;45.412;10.852;2023-05-18T02:19:36;13.70;99.90
41547;DHT22;27271;45.412;10.852;2023-05-18T02:23:00;13.80;99.90
41547;DHT22;27271;45.412;10.852;2023-05-18T02:26:23;13.80;99.90
41547;DHT22;27271;45.412;10.852;2023-05-18T02:29:46;13.80;99.90
41547;DHT22;27271;45.412;10.852;2023-05-18T02:33:08;13.80;99.90
41547;DHT22;27271;45.412;10.852;2023-05-18T02:36:32;13.80;99.90
41547;DHT22;27271;45.412;10.852;2023-05-18T02:40:01;13.70;99.90
41547;DHT22;27271;45.412;10.852;2023-05-18T02:43:23;13.70;99.90
41547;DHT22;27271;45.412;10.852;2023-05-18T02:46:45;13.60;99.90
41547;DHT22;27271;45.412;10.852;2023-05-18T02:50:08;13.60;99.90
41547;DHT22;27271;45.412;10.852;2023-05-18T02:53:30;13.60;99.90
41547;DHT22;27271;45.412;10.852;2023-05-18T02:56:58;13.50;1.00
41547;DHT22;27271;45.412;10.852;2023-05-18T03:00:29;13.50;1.00
41547;DHT22;27271;45.412;10.852;2023-05-18T03:03:53;13.40;1.00
41547;DHT22;27271;45.412;10.852;2023-05-18T03:07:15;13.40;1.00
41547;DHT22;27271;45.412;10.852;2023-05-18T03:10:39;13.30;1.70
41547;DHT22;27271;45.412;10.852;2023-05-18T03:14:01;13.30;99.90
41547;DHT22;27271;45.412;10.852;2023-05-18T03:17:23;13.30;4.40
41547;DHT22;27271;45.412;10.852;2023-05-18T03:20:46;13.20;25.90
41547;DHT22;27271;45.412;10.852;2023-05-18T03:24:08;13.20;99.90
41547;DHT22;27271;45.412;10.852;2023-05-18T03:27:33;13.10;99.90
41547;DHT22;27271;45.412;10.852;2023-05-18T03:30:56;13.10;99.90
41547;DHT22;27271;45.412;10.852;2023-05-18T03:34:20;13.10;1.00
41547;DHT22;27271;45.412;10.852;2023-05-18T03:37:42;13.00;94.30
41547;DHT22;27271;45.412;10.852;2023-05-18T03:41:04;13.00;99.90
41547;DHT22;27271;45.412;10.852;2023-05-18T03:44:26;13.00;99.90
41547;DHT22;27271;45.412;10.852;2023-05-18T03:47:49;13.00;1.00
41547;DHT22;27271;45.412;10.852;2023-05-18T03:51:12;13.10;1.00
41547;DHT22;27271;45.412;10.852;2023-05-18T03:54:34;13.00;99.90
41547;DHT22;27271;45.412;10.852;2023-05-18T03:57:56;13.10;99.90
41547;DHT22;27271;45.412;10.852;2023-05-18T04:01:19;13.20;99.90
41547;DHT22;27271;45.412;10.852;2023-05-18T04:04:45;13.20;97.00
41547;DHT22;27271;45.412;10.852;2023-05-18T04:08:08;13.20;99.90
41547;DHT22;27271;45.412;10.852;2023-05-18T04:11:31;13.30;99.90
41547;DHT22;27271;45.412;10.852;2023-05-18T04:14:53;13.30;1.00
41547;DHT22;27271;45.412;10.852;2023-05-18T04:18:16;13.40;1.00
41547;DHT22;27271;45.412;10.852;2023-05-18T04:21:38;13.40;99.90
41547;DHT22;27271;45.412;10.852;2023-05-18T04:25:04;13.50;99.90
41547;DHT22;27271;45.412;10.852;2023-05-18T04:28:26;13.60;99.90
41547;DHT22;27271;45.412;10.852;2023-05-18T04:31:49;13.70;99.90
41547;DHT22;27271;45.412;10.852;2023-05-18T04:35:11;13.70;99.90
41547;DHT22;27271;45.412;10.852;2023-05-18T04:38:34;13.80;99.90
41547;DHT22;27271;45.412;10.852;2023-05-18T04:41:57;13.90;99.90
41547;DHT22;27271;45.412;10.852;2023-05-18T04:45:21;14.10;99.90
41547;DHT22;27271;45.412;10.852;2023-05-18T04:48:44;14.40;98.40
41547;DHT22;27271;45.412;10.852;2023-05-18T04:52:10;14.70;69.50
41547;DHT22;27271;45.412;10.852;2023-05-18T04:55:33;15.20;4.40
41547;DHT22;27271;45.412;10.852;2023-05-18T04:59:01;15.30;10.00
41547;DHT22;27271;45.412;10.852;2023-05-18T05:02:24;15.40;15.70
41547;DHT22;27271;45.412;10.852;2023-05-18T05:05:47;15.50;1.00
41547;DHT22;27271;45.412;10.852;2023-05-18T05:09:09;16.00;1.00
41547;DHT22;27271;45.412;10.852;2023-05-18T05:12:37;17.60;1.00
41547;DHT22;27271;45.412;10.852;2023-05-18T05:16:00;19.30;1.00
41547;DHT22;27271;45.412;10.852;2023-05-18T05:19:22;20.50;1.00
41547;DHT22;27271;45.412;10.852;2023-05-18T05:22:45;22.20;1.00
41547;DHT22;27271;45.412;10.852;2023-05-18T05:26:10;23.50;1.00
41547;DHT22;27271;45.412;10.852;2023-05-18T05:29:32;23.90;1.00
41547;DHT22;27271;45.412;10.852;2023-05-18T05:32:54;24.20;1.00
41547;DHT22;27271;45.412;10.852;2023-05-18T05:36:17;22.80;1.00
41547;DHT22;27271;45.412;10.852;2023-05-18T05:39:39;22.40;1.00
41547;DHT22;27271;45.412;10.852;2023-05-18T05:43:03;21.20;1.00
41547;DHT22;27271;45.412;10.852;2023-05-18T05:46:26;20.60;1.00
41547;DHT22;27271;45.412;10.852;2023-05-18T05:49:50;20.20;1.00
41547;DHT22;27271;45.412;10.852;2023-05-18T05:53:12;20.20;1.00
41547;DHT22;27271;45.412;10.852;2023-05-18T05:56:38;20.00;1.00
41547;DHT22;27271;45.412;10.852;2023-05-18T06:00:01;21.50;1.00
41547;DHT22;27271;45.412;10.852;2023-05-18T06:03:41;22.60;1.00
41547;DHT22;27271;45.412;10.852;2023-05-18T06:07:07;21.60;1.00
41547;DHT22;27271;45.412;10.852;2023-05-18T06:10:29;21.00;1.00
41547;DHT22;27271;45.412;10.852;2023-05-18T06:13:52;19.40;1.00
41547;DHT22;27271;45.412;10.852;2023-05-18T06:17:14;18.70;1.00
41547;DHT22;27271;45.412;10.852;2023-05-18T06:20:37;20.10;1.00
41547;DHT22;27271;45.412;10.852;2023-05-18T06:23:59;22.30;1.00
41547;DHT22;27271;45.412;10.852;2023-05-18T06:31:12;24.20;1.00
41547;DHT22;27271;45.412;10.852;2023-05-18T06:34:40;23.90;1.00
41547;DHT22;27271;45.412;10.852;2023-05-18T06:38:04;24.20;1.00
41547;DHT22;27271;45.412;10.852;2023-05-18T06:41:26;24.60;1.00
41547;DHT22;27271;45.412;10.852;2023-05-18T06:44:48;25.30;1.00
41547;DHT22;27271;45.412;10.852;2023-05-18T06:48:12;25.20;1.00
41547;DHT22;27271;45.412;10.852;2023-05-18T06:51:35;25.50;1.00
41547;DHT22;27271;45.412;10.852;2023-05-18T06:54:58;24.30;1.00
41547;DHT22;27271;45.412;10.852;2023-05-18T06:58:22;23.80;1.00
41547;DHT22;27271;45.412;10.852;2023-05-18T07:01:45;25.00;1.00
41547;DHT22;27271;45.412;10.852;2023-05-18T07:05:10;25.20;99.90
41547;DHT22;27271;45.412;10.852;2023-05-18T07:08:32;24.00;99.90
41547;DHT22;27271;45.412;10.852;2023-05-18T07:11:54;23.60;99.90
41547;DHT22;27271;45.412;10.852;2023-05-18T07:15:16;22.90;1.00
41547;DHT22;27271;45.412;10.852;2023-05-18T07:18:38;24.30;1.00
41547;DHT22;27271;45.412;10.852;2023-05-18T07:22:03;24.90;99.90
41547;DHT22;27271;45.412;10.852;2023-05-18T07:25:25;26.70;99.90
41547;DHT22;27271;45.412;10.852;2023-05-18T07:28:47;26.80;99.90
41547;DHT22;27271;45.412;10.852;2023-05-18T07:32:10;27.30;99.90
41547;DHT22;27271;45.412;10.852;2023-05-18T07:35:32;27.60;99.90
41547;DHT22;27271;45.412;10.852;2023-05-18T07:38:54;26.40;99.90
41547;DHT22;27271;45.412;10.852;2023-05-18T07:42:17;27.10;99.90
41547;DHT22;27271;45.412;10.852;2023-05-18T07:45:39;28.30;99.90
41547;DHT22;27271;45.412;10.852;2023-05-18T07:49:01;27.50;99.90
41547;DHT22;27271;45.412;10.852;2023-05-18T07:52:23;27.90;99.90
41547;DHT22;27271;45.412;10.852;2023-05-18T07:55:46;28.50;99.90
41547;DHT22;27271;45.412;10.852;2023-05-18T07:59:08;28.20;99.90
41547;DHT22;27271;45.412;10.852;2023-05-18T08:02:31;26.70;99.90
41547;DHT22;27271;45.412;10.852;2023-05-18T08:05:54;27.00;99.90
41547;DHT22;27271;45.412;10.852;2023-05-18T08:09:16;27.70;99.90
41547;DHT22;27271;45.412;10.852;2023-05-18T08:12:38;27.00;99.90
41547;DHT22;27271;45.412;10.852;2023-05-18T08:16:01;27.00;99.90
41547;DHT22;27271;45.412;10.852;2023-05-18T08:19:32;26.00;99.90
41547;DHT22;27271;45.412;10.852;2023-05-18T08:22:55;26.20;99.90
41547;DHT22;27271;45.412;10.852;2023-05-18T08:26:18;27.00;99.90
41547;DHT22;27271;45.412;10.852;2023-05-18T08:29:40;26.30;99.90
41547;DHT22;27271;45.412;10.852;2023-05-18T08:33:02;25.90;99.90
41547;DHT22;27271;45.412;10.852;2023-05-18T08:36:24;25.10;99.90
41547;DHT22;27271;45.412;10.852;2023-05-18T08:39:46;26.90;99.90
41547;DHT22;27271;45.412;10.852;2023-05-18T08:43:19;27.30;99.90
41547;DHT22;27271;45.412;10.852;2023-05-18T08:46:44;27.40;99.90
41547;DHT22;27271;45.412;10.852;2023-05-18T08:50:14;26.90;99.90
41547;DHT22;27271;45.412;10.852;2023-05-18T08:53:38;27.00;99.90
41547;DHT22;27271;45.412;10.852;2023-05-18T08:57:03;27.00;99.90
41547;DHT22;27271;45.412;10.852;2023-05-18T09:00:27;27.60;99.90
41547;DHT22;27271;45.412;10.852;2023-05-18T09:03:49;26.70;99.90
41547;DHT22;27271;45.412;10.852;2023-05-18T09:07:12;26.90;99.90
41547;DHT22;27271;45.412;10.852;2023-05-18T09:10:35;27.20;99.90
41547;DHT22;27271;45.412;10.852;2023-05-18T09:14:01;26.60;99.90
41547;DHT22;27271;45.412;10.852;2023-05-18T09:17:23;26.90;99.90
41547;DHT22;27271;45.412;10.852;2023-05-18T09:20:45;28.00;99.90
41547;DHT22;27271;45.412;10.852;2023-05-18T09:24:08;29.00;99.90
41547;DHT22;27271;45.412;10.852;2023-05-18T09:27:30;28.40;99.90
41547;DHT22;27271;45.412;10.852;2023-05-18T09:30:52;28.20;99.90
41547;DHT22;27271;45.412;10.852;2023-05-18T09:34:14;28.70;99.90
41547;DHT22;27271;45.412;10.852;2023-05-18T09:37:40;28.70;99.90
41547;DHT22;27271;45.412;10.852;2023-05-18T09:41:03;27.30;99.90
41547;DHT22;27271;45.412;10.852;2023-05-18T09:44:31;27.30;99.90
41547;DHT22;27271;45.412;10.852;2023-05-18T09:47:53;26.90;99.90
41547;DHT22;27271;45.412;10.852;2023-05-18T09:51:15;26.90;99.90
41547;DHT22;27271;45.412;10.852;2023-05-18T09:54:39;26.70;99.90
41547;DHT22;27271;45.412;10.852;2023-05-18T09:58:01;26.10;99.90
41547;DHT22;27271;45.412;10.852;2023-05-18T10:01:25;25.20;99.90
41547;DHT22;27271;45.412;10.852;2023-05-18T10:04:48;24.50;99.90
41547;DHT22;27271;45.412;10.852;2023-05-18T10:08:14;24.30;99.90
41547;DHT22;27271;45.412;10.852;2023-05-18T10:11:40;24.20;99.90
41547;DHT22;27271;45.412;10.852;2023-05-18T10:15:04;23.90;99.90
41547;DHT22;27271;45.412;10.852;2023-05-18T10:18:35;24.30;99.90
41547;DHT22;27271;45.412;10.852;2023-05-18T10:21:58;24.70;99.90
41547;DHT22;27271;45.412;10.852;2023-05-18T10:25:24;24.50;99.90
41547;DHT22;27271;45.412;10.852;2023-05-18T10:28:49;24.50;99.90
41547;DHT22;27271;45.412;10.852;2023-05-18T10:32:13;24.60;99.90
41547;DHT22;27271;45.412;10.852;2023-05-18T10:35:39;23.90;99.90
41547;DHT22;27271;45.412;10.852;2023-05-18T10:39:02;24.00;99.90
41547;DHT22;27271;45.412;10.852;2023-05-18T10:42:27;24.20;99.90
41547;DHT22;27271;45.412;10.852;2023-05-18T10:45:55;24.10;99.90
41547;DHT22;27271;45.412;10.852;2023-05-18T10:49:20;24.50;99.90
41547;DHT22;27271;45.412;10.852;2023-05-18T10:52:46;24.70;99.90
41547;DHT22;27271;45.412;10.852;2023-05-18T10:56:09;24.70;99.90
41547;DHT22;27271;45.412;10.852;2023-05-18T10:59:31;24.40;99.90
41547;DHT22;27271;45.412;10.852;2023-05-18T11:02:54;23.90;99.90
41547;DHT22;27271;45.412;10.852;2023-05-18T11:06:22;24.20;99.90
41547;DHT22;27271;45.412;10.852;2023-05-18T11:09:46;24.90;99.90
41547;DHT22;27271;45.412;10.852;2023-05-18T11:13:09;25.10;99.90
41547;DHT22;27271;45.412;10.852;2023-05-18T11:16:35;24.90;99.90
41547;DHT22;27271;45.412;10.852;2023-05-18T11:23:32;25.90;99.90
41547;DHT22;27271;45.412;10.852;2023-05-18T11:27:13;25.90;99.90
41547;DHT22;27271;45.412;10.852;2023-05-18T11:33:58;25.00;99.90
41547;DHT22;27271;45.412;10.852;2023-05-18T11:41:00;24.80;99.90
41547;DHT22;27271;45.412;10.852;2023-05-18T11:44:22;24.00;99.90
41547;DHT22;27271;45.412;10.852;2023-05-18T11:47:46;23.60;99.90
41547;DHT22;27271;45.412;10.852;2023-05-18T11:51:08;23.60;99.90
41547;DHT22;27271;45.412;10.852;2023-05-18T11:54:34;23.00;99.90
41547;DHT22;27271;45.412;10.852;2023-05-18T11:57:57;22.90;99.90
41547;DHT22;27271;45.412;10.852;2023-05-18T12:01:19;22.90;99.90
41547;DHT22;27271;45.412;10.852;2023-05-18T12:04:46;23.30;99.90
41547;DHT22;27271;45.412;10.852;2023-05-18T12:08:09;22.90;99.90
41547;DHT22;27271;45.412;10.852;2023-05-18T12:11:32;23.20;1.00
41547;DHT22;27271;45.412;10.852;2023-05-18T12:14:55;23.90;99.90
41547;DHT22;27271;45.412;10.852;2023-05-18T12:18:18;24.00;99.90
41547;DHT22;27271;45.412;10.852;2023-05-18T12:21:40;24.20;99.90
41547;DHT22;27271;45.412;10.852;2023-05-18T12:25:02;24.30;99.90
41547;DHT22;27271;45.412;10.852;2023-05-18T12:28:24;23.70;99.90
41547;DHT22;27271;45.412;10.852;2023-05-18T12:31:47;24.10;99.90
41547;DHT22;27271;45.412;10.852;2023-05-18T12:35:10;24.30;99.90
41547;DHT22;27271;45.412;10.852;2023-05-18T12:38:32;24.00;99.90
41547;DHT22;27271;45.412;10.852;2023-05-18T12:42:08;24.00;99.90
41547;DHT22;27271;45.412;10.852;2023-05-18T12:45:32;24.00;99.90
41547;DHT22;27271;45.412;10.852;2023-05-18T12:48:56;23.80;99.90
41547;DHT22;27271;45.412;10.852;2023-05-18T12:52:20;23.90;99.90
41547;DHT22;27271;45.412;10.852;2023-05-18T12:55:42;24.20;99.90
41547;DHT22;27271;45.412;10.852;2023-05-18T12:59:05;24.20;99.90
41547;DHT22;27271;45.412;10.852;2023-05-18T13:02:30;24.00;99.90
41547;DHT22;27271;45.412;10.852;2023-05-18T13:06:04;23.90;99.90
41547;DHT22;27271;45.412;10.852;2023-05-18T13:09:26;23.40;99.90
41547;DHT22;27271;45.412;10.852;2023-05-18T13:12:49;23.60;99.90
41547;DHT22;27271;45.412;10.852;2023-05-18T13:16:15;22.90;99.90
41547;DHT22;27271;45.412;10.852;2023-05-18T13:19:37;22.50;99.90
41547;DHT22;27271;45.412;10.852;2023-05-18T13:23:09;22.20;99.90
41547;DHT22;27271;45.412;10.852;2023-05-18T13:26:32;22.30;99.90
41547;DHT22;27271;45.412;10.852;2023-05-18T13:29:54;22.60;99.90
41547;DHT22;27271;45.412;10.852;2023-05-18T13:33:19;23.00;99.90
41547;DHT22;27271;45.412;10.852;2023-05-18T13:36:42;23.00;99.90
41547;DHT22;27271;45.412;10.852;2023-05-18T13:40:05;23.10;99.90
41547;DHT22;27271;45.412;10.852;2023-05-18T13:43:28;23.50;99.90
41547;DHT22;27271;45.412;10.852;2023-05-18T13:46:50;24.00;99.90
41547;DHT22;27271;45.412;10.852;2023-05-18T13:50:12;24.30;99.90
41547;DHT22;27271;45.412;10.852;2023-05-18T13:53:35;23.10;99.90
41547;DHT22;27271;45.412;10.852;2023-05-18T13:57:00;23.00;99.90
41547;DHT22;27271;45.412;10.852;2023-05-18T14:00:23;22.40;99.90
41547;DHT22;27271;45.412;10.852;2023-05-18T14:03:45;21.90;99.90
41547;DHT22;27271;45.412;10.852;2023-05-18T14:07:07;21.50;99.90
41547;DHT22;27271;45.412;10.852;2023-05-18T14:10:30;21.40;99.90
41547;DHT22;27271;45.412;10.852;2023-05-18T14:13:52;21.40;99.90
41547;DHT22;27271;45.412;10.852;2023-05-18T14:17:14;21.60;99.90
41547;DHT22;27271;45.412;10.852;2023-05-18T14:20:36;21.90;99.90
41547;DHT22;27271;45.412;10.852;2023-05-18T14:23:59;22.50;1.00
41547;DHT22;27271;45.412;10.852;2023-05-18T14:27:24;22.60;99.90
41547;DHT22;27271;45.412;10.852;2023-05-18T14:30:46;23.10;99.90
41547;DHT22;27271;45.412;10.852;2023-05-18T14:34:08;23.30;99.90
41547;DHT22;27271;45.412;10.852;2023-05-18T14:37:30;22.50;99.90
41547;DHT22;27271;45.412;10.852;2023-05-18T14:40:53;22.50;99.90
41547;DHT22;27271;45.412;10.852;2023-05-18T14:44:15;22.70;99.90
41547;DHT22;27271;45.412;10.852;2023-05-18T14:47:37;22.90;99.90
41547;DHT22;27271;45.412;10.852;2023-05-18T14:50:59;22.60;99.90
41547;DHT22;27271;45.412;10.852;2023-05-18T14:54:21;22.40;99.90
41547;DHT22;27271;45.412;10.852;2023-05-18T14:57:44;22.10;99.90
41547;DHT22;27271;45.412;10.852;2023-05-18T15:01:06;22.00;99.90
41547;DHT22;27271;45.412;10.852;2023-05-18T15:04:28;21.90;99.90
41547;DHT22;27271;45.412;10.852;2023-05-18T15:07:50;22.10;99.90
41547;DHT22;27271;45.412;10.852;2023-05-18T15:11:12;22.30;99.90
41547;DHT22;27271;45.412;10.852;2023-05-18T15:14:34;22.30;99.90
41547;DHT22;27271;45.412;10.852;2023-05-18T15:17:57;22.00;99.90
41547;DHT22;27271;45.412;10.852;2023-05-18T15:21:19;22.00;99.90
41547;DHT22;27271;45.412;10.852;2023-05-18T15:24:41;22.00;99.90
41547;DHT22;27271;45.412;10.852;2023-05-18T15:28:03;21.90;99.90
41547;DHT22;27271;45.412;10.852;2023-05-18T15:31:26;21.60;99.90
41547;DHT22;27271;45.412;10.852;2023-05-18T15:34:48;21.50;99.90
41547;DHT22;27271;45.412;10.852;2023-05-18T15:38:10;21.60;99.90
41547;DHT22;27271;45.412;10.852;2023-05-18T15:41:33;21.10;99.90
41547;DHT22;27271;45.412;10.852;2023-05-18T15:44:55;21.00;99.90
41547;DHT22;27271;45.412;10.852;2023-05-18T15:48:17;20.90;99.90
41547;DHT22;27271;45.412;10.852;2023-05-18T15:51:39;21.20;99.90
41547;DHT22;27271;45.412;10.852;2023-05-18T15:55:02;20.90;99.90
41547;DHT22;27271;45.412;10.852;2023-05-18T15:58:24;21.10;99.90
41547;DHT22;27271;45.412;10.852;2023-05-18T16:01:47;21.30;99.90
41547;DHT22;27271;45.412;10.852;2023-05-18T16:05:09;21.40;99.90
41547;DHT22;27271;45.412;10.852;2023-05-18T16:08:32;21.50;99.90
41547;DHT22;27271;45.412;10.852;2023-05-18T16:11:54;21.70;99.90
41547;DHT22;27271;45.412;10.852;2023-05-18T16:15:16;21.80;99.90
41547;DHT22;27271;45.412;10.852;2023-05-18T16:18:41;21.70;99.90
41547;DHT22;27271;45.412;10.852;2023-05-18T16:22:03;21.60;99.90
41547;DHT22;27271;45.412;10.852;2023-05-18T16:25:25;21.50;99.90
41547;DHT22;27271;45.412;10.852;2023-05-18T16:28:47;21.80;99.90
41547;DHT22;27271;45.412;10.852;2023-05-18T16:32:09;21.80;99.90
41547;DHT22;27271;45.412;10.852;2023-05-18T16:35:31;21.50;99.90
41547;DHT22;27271;45.412;10.852;2023-05-18T16:38:53;21.40;99.90
41547;DHT22;27271;45.412;10.852;2023-05-18T16:42:15;21.20;99.90
41547;DHT22;27271;45.412;10.852;2023-05-18T16:45:39;21.30;99.90
41547;DHT22;27271;45.412;10.852;2023-05-18T16:49:01;21.10;99.90
41547;DHT22;27271;45.412;10.852;2023-05-18T16:52:24;20.70;99.90
41547;DHT22;27271;45.412;10.852;2023-05-18T16:55:47;20.60;99.90
41547;DHT22;27271;45.412;10.852;2023-05-18T16:59:10;20.50;99.90
41547;DHT22;27271;45.412;10.852;2023-05-18T17:02:32;20.50;99.90
41547;DHT22;27271;45.412;10.852;2023-05-18T17:05:59;20.40;1.00
41547;DHT22;27271;45.412;10.852;2023-05-18T17:09:22;20.30;1.00
41547;DHT22;27271;45.412;10.852;2023-05-18T17:12:44;20.30;1.00
41547;DHT22;27271;45.412;10.852;2023-05-18T17:16:06;20.20;1.00
41547;DHT22;27271;45.412;10.852;2023-05-18T17:19:29;20.10;1.00
41547;DHT22;27271;45.412;10.852;2023-05-18T17:22:52;20.00;1.00
41547;DHT22;27271;45.412;10.852;2023-05-18T17:26:14;19.90;1.00
41547;DHT22;27271;45.412;10.852;2023-05-18T17:29:36;19.90;1.00
41547;DHT22;27271;45.412;10.852;2023-05-18T17:32:58;19.70;1.00
41547;DHT22;27271;45.412;10.852;2023-05-18T17:36:21;19.60;1.00
41547;DHT22;27271;45.412;10.852;2023-05-18T17:39:44;19.60;1.00
41547;DHT22;27271;45.412;10.852;2023-05-18T17:43:07;19.60;1.00
41547;DHT22;27271;45.412;10.852;2023-05-18T17:46:29;19.50;1.00
41547;DHT22;27271;45.412;10.852;2023-05-18T17:49:52;19.40;1.00
41547;DHT22;27271;45.412;10.852;2023-05-18T17:53:14;19.20;1.00
41547;DHT22;27271;45.412;10.852;2023-05-18T17:56:37;19.00;1.00
41547;DHT22;27271;45.412;10.852;2023-05-18T17:59:59;18.80;1.00
41547;DHT22;27271;45.412;10.852;2023-05-18T18:03:21;18.80;1.00
41547;DHT22;27271;45.412;10.852;2023-05-18T18:06:43;18.60;1.00
41547;DHT22;27271;45.412;10.852;2023-05-18T18:10:06;18.60;1.00
41547;DHT22;27271;45.412;10.852;2023-05-18T18:13:28;18.40;1.00
41547;DHT22;27271;45.412;10.852;2023-05-18T18:16:50;18.40;1.00
41547;DHT22;27271;45.412;10.852;2023-05-18T18:20:13;18.20;1.00
41547;DHT22;27271;45.412;10.852;2023-05-18T18:23:36;18.10;1.00
41547;DHT22;27271;45.412;10.852;2023-05-18T18:26:58;18.10;1.00
41547;DHT22;27271;45.412;10.852;2023-05-18T18:30:20;18.10;1.00
41547;DHT22;27271;45.412;10.852;2023-05-18T18:33:42;18.00;1.00
41547;DHT22;27271;45.412;10.852;2023-05-18T18:37:08;17.90;1.00
41547;DHT22;27271;45.412;10.852;2023-05-18T18:40:30;17.80;1.00
41547;DHT22;27271;45.412;10.852;2023-05-18T18:43:53;17.80;1.00
41547;DHT22;27271;45.412;10.852;2023-05-18T18:47:16;17.80;1.00
41547;DHT22;27271;45.412;10.852;2023-05-18T18:50:38;17.80;1.00
41547;DHT22;27271;45.412;10.852;2023-05-18T18:54:00;17.80;1.00
41547;DHT22;27271;45.412;10.852;2023-05-18T18:57:22;17.80;1.00
41547;DHT22;27271;45.412;10.852;2023-05-18T19:00:44;17.70;1.00
41547;DHT22;27271;45.412;10.852;2023-05-18T19:04:07;17.70;1.00
41547;DHT22;27271;45.412;10.852;2023-05-18T19:07:29;17.60;1.00
41547;DHT22;27271;45.412;10.852;2023-05-18T19:10:51;17.50;1.00
41547;DHT22;27271;45.412;10.852;2023-05-18T19:14:13;17.50;1.00
41547;DHT22;27271;45.412;10.852;2023-05-18T19:17:35;17.50;1.00
41547;DHT22;27271;45.412;10.852;2023-05-18T19:20:57;17.50;1.00
41547;DHT22;27271;45.412;10.852;2023-05-18T19:24:22;17.40;1.00
41547;DHT22;27271;45.412;10.852;2023-05-18T19:27:44;17.40;1.00
41547;DHT22;27271;45.412;10.852;2023-05-18T19:31:06;17.30;1.00
41547;DHT22;27271;45.412;10.852;2023-05-18T19:34:31;17.30;1.00
41547;DHT22;27271;45.412;10.852;2023-05-18T19:37:53;17.30;1.00
41547;DHT22;27271;45.412;10.852;2023-05-18T19:41:15;17.20;1.00
41547;DHT22;27271;45.412;10.852;2023-05-18T19:44:37;17.20;1.00
41547;DHT22;27271;45.412;10.852;2023-05-18T19:47:59;17.10;1.00
41547;DHT22;27271;45.412;10.852;2023-05-18T19:51:21;17.10;1.00
41547;DHT22;27271;45.412;10.852;2023-05-18T19:54:43;17.00;1.00
41547;DHT22;27271;45.412;10.852;2023-05-18T19:58:05;17.00;1.00
41547;DHT22;27271;45.412;10.852;2023-05-18T20:01:27;17.00;1.00
41547;DHT22;27271;45.412;10.852;2023-05-18T20:04:49;17.00;1.00
41547;DHT22;27271;45.412;10.852;2023-05-18T20:08:12;17.00;1.00
41547;DHT22;27271;45.412;10.852;2023-05-18T20:11:34;16.90;1.00
41547;DHT22;27271;45.412;10.852;2023-05-18T20:14:56;16.90;1.00
41547;DHT22;27271;45.412;10.852;2023-05-18T20:18:18;16.90;1.00
41547;DHT22;27271;45.412;10.852;2023-05-18T20:21:40;16.90;1.00
41547;DHT22;27271;45.412;10.852;2023-05-18T20:25:03;16.80;1.00
41547;DHT22;27271;45.412;10.852;2023-05-18T20:28:26;16.80;1.00
41547;DHT22;27271;45.412;10.852;2023-05-18T20:31:49;16.70;1.00
41547;DHT22;27271;45.412;10.852;2023-05-18T20:35:11;16.80;1.00
41547;DHT22;27271;45.412;10.852;2023-05-18T20:38:36;16.70;1.00
41547;DHT22;27271;45.412;10.852;2023-05-18T20:41:59;16.70;1.00
41547;DHT22;27271;45.412;10.852;2023-05-18T20:45:22;16.70;1.00
41547;DHT22;27271;45.412;10.852;2023-05-18T20:48:46;16.70;1.00
41547;DHT22;27271;45.412;10.852;2023-05-18T20:52:08;16.70;1.00
41547;DHT22;27271;45.412;10.852;2023-05-18T20:55:30;16.80;1.00
41547;DHT22;27271;45.412;10.852;2023-05-18T20:58:52;16.70;1.00
41547;DHT22;27271;45.412;10.852;2023-05-18T21:02:15;16.70;1.00
41547;DHT22;27271;45.412;10.852;2023-05-18T21:05:38;16.70;1.00
41547;DHT22;27271;45.412;10.852;2023-05-18T21:09:00;16.60;1.00
41547;DHT22;27271;45.412;10.852;2023-05-18T21:12:22;16.60;1.00
41547;DHT22;27271;45.412;10.852;2023-05-18T21:15:45;16.50;1.00
41547;DHT22;27271;45.412;10.852;2023-05-18T21:19:07;16.50;1.00
41547;DHT22;27271;45.412;10.852;2023-05-18T21:22:30;16.50;1.00
41547;DHT22;27271;45.412;10.852;2023-05-18T21:25:52;16.40;1.00
41547;DHT22;27271;45.412;10.852;2023-05-18T21:29:15;16.50;1.00
41547;DHT22;27271;45.412;10.852;2023-05-18T21:32:37;16.50;1.00
41547;DHT22;27271;45.412;10.852;2023-05-18T21:36:00;16.40;1.00